sensor_id;sensor_type;location;lat;lon;timestamp;P1;durP1;ratioP1;P2;durP2;ratioP2
2620;SDS011;1320;48.128;11.592;2023-04-06T00:00:31;11.68;;;8.13;;
2620;SDS011;1320;48.128;11.592;2023-04-06T00:02:57;10.20;;;8.63;;
2620;SDS011;1320;48.128;11.592;2023-04-06T00:05:22;11.07;;;8.10;;
2620;SDS011;1320;48.128;11.592;2023-04-06T00:07:48;12.17;;;9.13;;
2620;SDS011;1320;48.128;11.592;2023-04-06T00:10:15;11.52;;;7.60;;
2620;SDS011;1320;48.128;11.592;2023-04-06T00:12:41;12.82;;;8.45;;
2620;SDS011;1320;48.128;11.592;2023-04-06T00:15:07;13.47;;;9.50;;
2620;SDS011;1320;48.128;11.592;2023-04-06T00:17:33;9.27;;;8.27;;
2620;SDS011;1320;48.128;11.592;2023-04-06T00:19:59;12.23;;;8.77;;
2620;SDS011;1320;48.128;11.592;2023-04-06T00:22:25;10.53;;;7.50;;
2620;SDS011;1320;48.128;11.592;2023-04-06T00:24:50;13.33;;;9.53;;
2620;SDS011;1320;48.128;11.592;2023-04-06T00:27:16;10.70;;;6.97;;
2620;SDS011;1320;48.128;11.592;2023-04-06T00:29:43;9.53;;;8.13;;
2620;SDS011;1320;48.128;11.592;2023-04-06T00:32:09;13.63;;;8.90;;
2620;SDS011;1320;48.128;11.592;2023-04-06T00:34:34;10.70;;;7.10;;
2620;SDS011;1320;48.128;11.592;2023-04-06T00:37:00;10.17;;;7.13;;
2620;SDS011;1320;48.128;11.592;2023-04-06T00:39:26;11.10;;;7.90;;
2620;SDS011;1320;48.128;11.592;2023-04-06T00:41:52;9.13;;;7.40;;
2620;SDS011;1320;48.128;11.592;2023-04-06T00:44:18;11.93;;;7.35;;
2620;SDS011;1320;48.128;11.592;2023-04-06T00:46:45;9.50;;;7.50;;
2620;SDS011;1320;48.128;11.592;2023-04-06T00:49:11;12.88;;;7.50;;
2620;SDS011;1320;48.128;11.592;2023-04-06T00:51:36;10.87;;;7.53;;
2620;SDS011;1320;48.128;11.592;2023-04-06T00:54:02;10.17;;;7.20;;
2620;SDS011;1320;48.128;11.592;2023-04-06T00:56:28;9.50;;;7.50;;
2620;SDS011;1320;48.128;11.592;2023-04-06T00:58:54;10.57;;;8.00;;
2620;SDS011;1320;48.128;11.592;2023-04-06T01:01:20;10.13;;;7.10;;
2620;SDS011;1320;48.128;11.592;2023-04-06T01:03:46;12.40;;;7.97;;
2620;SDS011;1320;48.128;11.592;2023-04-06T01:06:14;9.55;;;8.00;;
2620;SDS011;1320;48.128;11.592;2023-04-06T01:08:41;9.85;;;7.68;;
2620;SDS011;1320;48.128;11.592;2023-04-06T01:11:06;11.50;;;7.43;;
2620;SDS011;1320;48.128;11.592;2023-04-06T01:13:32;7.50;;;6.40;;
2620;SDS011;1320;48.128;11.592;2023-04-06T01:15:58;10.67;;;8.00;;
2620;SDS011;1320;48.128;11.592;2023-04-06T01:18:27;9.93;;;6.67;;
2620;SDS011;1320;48.128;11.592;2023-04-06T01:20:53;8.48;;;7.05;;
2620;SDS011;1320;48.128;11.592;2023-04-06T01:23:19;10.70;;;6.60;;
2620;SDS011;1320;48.128;11.592;2023-04-06T01:25:45;10.93;;;7.00;;
2620;SDS011;1320;48.128;11.592;2023-04-06T01:28:11;8.80;;;6.53;;
2620;SDS011;1320;48.128;11.592;2023-04-06T01:30:36;9.20;;;5.80;;
2620;SDS011;1320;48.128;11.592;2023-04-06T01:33:02;9.73;;;7.00;;
2620;SDS011;1320;48.128;11.592;2023-04-06T01:35:28;8.87;;;6.60;;
2620;SDS011;1320;48.128;11.592;2023-04-06T01:37:55;8.98;;;5.88;;
2620;SDS011;1320;48.128;11.592;2023-04-06T01:40:20;9.20;;;6.00;;
2620;SDS011;1320;48.128;11.592;2023-04-06T01:42:46;9.70;;;6.67;;
2620;SDS011;1320;48.128;11.592;2023-04-06T01:45:12;9.30;;;6.73;;
2620;SDS011;1320;48.128;11.592;2023-04-06T01:47:38;9.80;;;6.47;;
2620;SDS011;1320;48.128;11.592;2023-04-06T01:50:03;8.30;;;6.13;;
2620;SDS011;1320;48.128;11.592;2023-04-06T01:52:31;8.73;;;6.40;;
2620;SDS011;1320;48.128;11.592;2023-04-06T01:54:58;12.88;;;6.80;;
2620;SDS011;1320;48.128;11.592;2023-04-06T01:57:23;11.67;;;6.30;;
2620;SDS011;1320;48.128;11.592;2023-04-06T01:59:50;9.90;;;6.10;;
2620;SDS011;1320;48.128;11.592;2023-04-06T02:02:16;8.50;;;6.23;;
2620;SDS011;1320;48.128;11.592;2023-04-06T02:08:04;8.50;;;6.50;;
2620;SDS011;1320;48.128;11.592;2023-04-06T02:10:30;7.07;;;5.50;;
2620;SDS011;1320;48.128;11.592;2023-04-06T02:12:57;8.90;;;5.68;;
2620;SDS011;1320;48.128;11.592;2023-04-06T02:15:23;11.03;;;6.80;;
2620;SDS011;1320;48.128;11.592;2023-04-06T02:17:48;9.07;;;6.23;;
2620;SDS011;1320;48.128;11.592;2023-04-06T02:20:14;8.40;;;6.27;;
2620;SDS011;1320;48.128;11.592;2023-04-06T02:22:40;11.50;;;6.67;;
2620;SDS011;1320;48.128;11.592;2023-04-06T02:25:06;8.97;;;6.50;;
2620;SDS011;1320;48.128;11.592;2023-04-06T02:27:31;10.65;;;6.32;;
2620;SDS011;1320;48.128;11.592;2023-04-06T02:29:57;10.37;;;6.37;;
2620;SDS011;1320;48.128;11.592;2023-04-06T02:32:23;8.93;;;6.47;;
2620;SDS011;1320;48.128;11.592;2023-04-06T02:34:49;8.98;;;6.60;;
2620;SDS011;1320;48.128;11.592;2023-04-06T02:37:14;6.60;;;5.57;;
2620;SDS011;1320;48.128;11.592;2023-04-06T02:39:40;8.63;;;6.73;;
2620;SDS011;1320;48.128;11.592;2023-04-06T02:42:06;7.40;;;6.13;;
2620;SDS011;1320;48.128;11.592;2023-04-06T02:44:33;8.68;;;6.35;;
2620;SDS011;1320;48.128;11.592;2023-04-06T02:46:59;8.43;;;6.10;;
2620;SDS011;1320;48.128;11.592;2023-04-06T02:49:25;11.20;;;7.07;;
2620;SDS011;1320;48.128;11.592;2023-04-06T02:51:50;9.33;;;6.17;;
2620;SDS011;1320;48.128;11.592;2023-04-06T02:54:16;10.40;;;7.20;;
2620;SDS011;1320;48.128;11.592;2023-04-06T02:56:42;7.53;;;6.30;;
2620;SDS011;1320;48.128;11.592;2023-04-06T02:59:08;8.40;;;6.03;;
2620;SDS011;1320;48.128;11.592;2023-04-06T03:01:33;7.50;;;5.73;;
2620;SDS011;1320;48.128;11.592;2023-04-06T03:03:59;7.60;;;6.20;;
2620;SDS011;1320;48.128;11.592;2023-04-06T03:06:25;8.43;;;6.37;;
2620;SDS011;1320;48.128;11.592;2023-04-06T03:08:51;12.43;;;7.10;;
2620;SDS011;1320;48.128;11.592;2023-04-06T03:11:17;9.77;;;6.40;;
2620;SDS011;1320;48.128;11.592;2023-04-06T03:13:42;10.63;;;7.10;;
2620;SDS011;1320;48.128;11.592;2023-04-06T03:16:08;8.37;;;7.07;;
2620;SDS011;1320;48.128;11.592;2023-04-06T03:18:34;10.90;;;7.50;;
2620;SDS011;1320;48.128;11.592;2023-04-06T03:20:59;11.17;;;7.50;;
2620;SDS011;1320;48.128;11.592;2023-04-06T03:23:25;10.98;;;7.15;;
2620;SDS011;1320;48.128;11.592;2023-04-06T03:25:51;9.77;;;7.13;;
2620;SDS011;1320;48.128;11.592;2023-04-06T03:28:17;11.00;;;7.40;;
2620;SDS011;1320;48.128;11.592;2023-04-06T03:30:42;9.50;;;7.00;;
2620;SDS011;1320;48.128;11.592;2023-04-06T03:33:08;10.85;;;7.63;;
2620;SDS011;1320;48.128;11.592;2023-04-06T03:35:34;11.20;;;6.80;;
2620;SDS011;1320;48.128;11.592;2023-04-06T03:38:01;8.05;;;7.03;;
2620;SDS011;1320;48.128;11.592;2023-04-06T03:40:27;9.25;;;5.95;;
2620;SDS011;1320;48.128;11.592;2023-04-06T03:42:53;12.20;;;7.97;;
2620;SDS011;1320;48.128;11.592;2023-04-06T03:45:19;9.00;;;6.40;;
2620;SDS011;1320;48.128;11.592;2023-04-06T03:47:44;10.43;;;7.03;;
2620;SDS011;1320;48.128;11.592;2023-04-06T03:50:11;8.90;;;5.82;;
2620;SDS011;1320;48.128;11.592;2023-04-06T03:52:36;10.53;;;7.20;;
2620;SDS011;1320;48.128;11.592;2023-04-06T03:55:02;9.80;;;5.90;;
2620;SDS011;1320;48.128;11.592;2023-04-06T03:57:28;9.75;;;7.35;;
2620;SDS011;1320;48.128;11.592;2023-04-06T03:59:54;8.03;;;5.80;;
2620;SDS011;1320;48.128;11.592;2023-04-06T04:02:20;11.17;;;6.93;;
2620;SDS011;1320;48.128;11.592;2023-04-06T04:04:45;10.83;;;7.33;;
2620;SDS011;1320;48.128;11.592;2023-04-06T04:07:11;10.60;;;6.90;;
2620;SDS011;1320;48.128;11.592;2023-04-06T04:09:37;8.17;;;5.80;;
2620;SDS011;1320;48.128;11.592;2023-04-06T04:12:03;10.60;;;6.77;;
2620;SDS011;1320;48.128;11.592;2023-04-06T04:14:28;8.23;;;6.57;;
2620;SDS011;1320;48.128;11.592;2023-04-06T04:16:54;10.33;;;7.33;;
2620;SDS011;1320;48.128;11.592;2023-04-06T04:19:20;10.20;;;6.93;;
2620;SDS011;1320;48.128;11.592;2023-04-06T04:21:46;12.60;;;7.40;;
2620;SDS011;1320;48.128;11.592;2023-04-06T04:27:34;9.48;;;6.75;;
2620;SDS011;1320;48.128;11.592;2023-04-06T04:30:00;10.10;;;6.97;;
2620;SDS011;1320;48.128;11.592;2023-04-06T04:32:25;8.30;;;5.77;;
2620;SDS011;1320;48.128;11.592;2023-04-06T04:34:52;8.45;;;6.97;;
2620;SDS011;1320;48.128;11.592;2023-04-06T04:37:18;12.27;;;7.63;;
2620;SDS011;1320;48.128;11.592;2023-04-06T04:39:44;10.65;;;6.93;;
2620;SDS011;1320;48.128;11.592;2023-04-06T04:42:10;10.47;;;7.30;;
2620;SDS011;1320;48.128;11.592;2023-04-06T04:44:36;10.07;;;7.70;;
2620;SDS011;1320;48.128;11.592;2023-04-06T04:47:01;13.27;;;8.53;;
2620;SDS011;1320;48.128;11.592;2023-04-06T04:49:27;13.00;;;7.53;;
2620;SDS011;1320;48.128;11.592;2023-04-06T04:51:53;9.50;;;7.20;;
2620;SDS011;1320;48.128;11.592;2023-04-06T04:57:41;9.40;;;6.40;;
2620;SDS011;1320;48.128;11.592;2023-04-06T05:03:29;13.65;;;6.55;;
2620;SDS011;1320;48.128;11.592;2023-04-06T05:05:55;11.77;;;7.40;;
2620;SDS011;1320;48.128;11.592;2023-04-06T05:08:21;10.47;;;7.60;;
2620;SDS011;1320;48.128;11.592;2023-04-06T05:10:47;11.30;;;7.40;;
2620;SDS011;1320;48.128;11.592;2023-04-06T05:13:13;10.32;;;7.43;;
2620;SDS011;1320;48.128;11.592;2023-04-06T05:15:39;10.93;;;7.57;;
2620;SDS011;1320;48.128;11.592;2023-04-06T05:18:06;11.10;;;7.50;;
2620;SDS011;1320;48.128;11.592;2023-04-06T05:20:32;9.40;;;6.78;;
2620;SDS011;1320;48.128;11.592;2023-04-06T05:22:58;8.43;;;7.03;;
2620;SDS011;1320;48.128;11.592;2023-04-06T05:25:24;10.47;;;7.63;;
2620;SDS011;1320;48.128;11.592;2023-04-06T05:27:50;10.77;;;7.50;;
2620;SDS011;1320;48.128;11.592;2023-04-06T05:30:16;8.13;;;7.13;;
2620;SDS011;1320;48.128;11.592;2023-04-06T05:32:41;12.80;;;7.60;;
2620;SDS011;1320;48.128;11.592;2023-04-06T05:35:09;13.40;;;6.45;;
2620;SDS011;1320;48.128;11.592;2023-04-06T05:37:35;9.88;;;6.45;;
2620;SDS011;1320;48.128;11.592;2023-04-06T05:40:00;10.20;;;6.90;;
2620;SDS011;1320;48.128;11.592;2023-04-06T05:42:26;12.07;;;7.53;;
2620;SDS011;1320;48.128;11.592;2023-04-06T05:44:52;9.47;;;7.90;;
2620;SDS011;1320;48.128;11.592;2023-04-06T05:47:18;13.33;;;7.70;;
2620;SDS011;1320;48.128;11.592;2023-04-06T05:49:43;10.33;;;7.13;;
2620;SDS011;1320;48.128;11.592;2023-04-06T05:52:09;9.33;;;7.33;;
2620;SDS011;1320;48.128;11.592;2023-04-06T05:54:36;10.90;;;6.72;;
2620;SDS011;1320;48.128;11.592;2023-04-06T05:57:02;11.52;;;7.75;;
2620;SDS011;1320;48.128;11.592;2023-04-06T05:59:29;9.85;;;7.30;;
2620;SDS011;1320;48.128;11.592;2023-04-06T06:01:55;12.48;;;6.90;;
2620;SDS011;1320;48.128;11.592;2023-04-06T06:04:21;13.83;;;7.10;;
2620;SDS011;1320;48.128;11.592;2023-04-06T06:06:47;9.47;;;7.67;;
2620;SDS011;1320;48.128;11.592;2023-04-06T06:09:12;14.33;;;7.50;;
2620;SDS011;1320;48.128;11.592;2023-04-06T06:11:38;12.17;;;7.67;;
2620;SDS011;1320;48.128;11.592;2023-04-06T06:14:04;9.90;;;7.90;;
2620;SDS011;1320;48.128;11.592;2023-04-06T06:16:30;8.73;;;6.65;;
2620;SDS011;1320;48.128;11.592;2023-04-06T06:18:55;13.60;;;7.93;;
2620;SDS011;1320;48.128;11.592;2023-04-06T06:21:21;13.63;;;8.27;;
2620;SDS011;1320;48.128;11.592;2023-04-06T06:23:47;10.17;;;7.57;;
2620;SDS011;1320;48.128;11.592;2023-04-06T06:26:14;8.85;;;7.35;;
2620;SDS011;1320;48.128;11.592;2023-04-06T06:28:40;9.87;;;6.30;;
2620;SDS011;1320;48.128;11.592;2023-04-06T06:31:05;9.60;;;6.47;;
2620;SDS011;1320;48.128;11.592;2023-04-06T06:33:32;9.68;;;7.82;;
2620;SDS011;1320;48.128;11.592;2023-04-06T06:35:57;10.17;;;7.00;;
2620;SDS011;1320;48.128;11.592;2023-04-06T06:38:23;9.77;;;7.67;;
2620;SDS011;1320;48.128;11.592;2023-04-06T06:40:49;10.13;;;7.53;;
2620;SDS011;1320;48.128;11.592;2023-04-06T06:43:14;16.83;;;7.13;;
2620;SDS011;1320;48.128;11.592;2023-04-06T06:45:40;10.73;;;8.37;;
2620;SDS011;1320;48.128;11.592;2023-04-06T06:48:07;13.20;;;7.55;;
2620;SDS011;1320;48.128;11.592;2023-04-06T06:50:32;14.33;;;7.80;;
2620;SDS011;1320;48.128;11.592;2023-04-06T06:52:58;18.53;;;7.60;;
2620;SDS011;1320;48.128;11.592;2023-04-06T06:55:24;11.70;;;6.67;;
2620;SDS011;1320;48.128;11.592;2023-04-06T06:57:51;9.68;;;6.72;;
2620;SDS011;1320;48.128;11.592;2023-04-06T07:00:18;11.43;;;6.40;;
2620;SDS011;1320;48.128;11.592;2023-04-06T07:02:46;8.70;;;7.40;;
2620;SDS011;1320;48.128;11.592;2023-04-06T07:05:12;14.90;;;7.97;;
2620;SDS011;1320;48.128;11.592;2023-04-06T07:07:38;9.40;;;7.25;;
2620;SDS011;1320;48.128;11.592;2023-04-06T07:10:04;10.40;;;7.57;;
2620;SDS011;1320;48.128;11.592;2023-04-06T07:12:30;12.10;;;6.78;;
2620;SDS011;1320;48.128;11.592;2023-04-06T07:14:56;9.17;;;7.00;;
2620;SDS011;1320;48.128;11.592;2023-04-06T07:17:21;10.83;;;8.03;;
2620;SDS011;1320;48.128;11.592;2023-04-06T07:19:47;9.50;;;7.40;;
2620;SDS011;1320;48.128;11.592;2023-04-06T07:22:13;10.30;;;8.10;;
2620;SDS011;1320;48.128;11.592;2023-04-06T07:24:39;11.33;;;7.83;;
2620;SDS011;1320;48.128;11.592;2023-04-06T07:27:05;10.13;;;7.17;;
2620;SDS011;1320;48.128;11.592;2023-04-06T07:29:30;9.40;;;6.73;;
2620;SDS011;1320;48.128;11.592;2023-04-06T07:31:56;12.07;;;9.10;;
2620;SDS011;1320;48.128;11.592;2023-04-06T07:34:22;11.50;;;8.07;;
2620;SDS011;1320;48.128;11.592;2023-04-06T07:36:48;14.60;;;8.23;;
2620;SDS011;1320;48.128;11.592;2023-04-06T07:39:13;11.20;;;6.93;;
2620;SDS011;1320;48.128;11.592;2023-04-06T07:41:39;9.60;;;8.00;;
2620;SDS011;1320;48.128;11.592;2023-04-06T07:44:05;11.47;;;7.70;;
2620;SDS011;1320;48.128;11.592;2023-04-06T07:46:31;8.90;;;7.40;;
2620;SDS011;1320;48.128;11.592;2023-04-06T07:49:00;10.73;;;9.63;;
2620;SDS011;1320;48.128;11.592;2023-04-06T07:51:28;10.53;;;8.00;;
2620;SDS011;1320;48.128;11.592;2023-04-06T07:53:54;7.80;;;6.90;;
2620;SDS011;1320;48.128;11.592;2023-04-06T07:56:20;10.90;;;9.27;;
2620;SDS011;1320;48.128;11.592;2023-04-06T07:58:46;9.00;;;7.77;;
2620;SDS011;1320;48.128;11.592;2023-04-06T08:01:12;9.17;;;7.23;;
2620;SDS011;1320;48.128;11.592;2023-04-06T08:03:38;9.57;;;8.23;;
2620;SDS011;1320;48.128;11.592;2023-04-06T08:06:04;9.43;;;7.83;;
2620;SDS011;1320;48.128;11.592;2023-04-06T08:08:30;9.40;;;7.73;;
2620;SDS011;1320;48.128;11.592;2023-04-06T08:10:56;12.63;;;8.00;;
2620;SDS011;1320;48.128;11.592;2023-04-06T08:13:22;10.57;;;7.77;;
2620;SDS011;1320;48.128;11.592;2023-04-06T08:15:47;10.30;;;7.10;;
2620;SDS011;1320;48.128;11.592;2023-04-06T08:18:13;9.23;;;7.13;;
2620;SDS011;1320;48.128;11.592;2023-04-06T08:20:39;8.77;;;7.40;;
2620;SDS011;1320;48.128;11.592;2023-04-06T08:23:05;10.23;;;7.57;;
2620;SDS011;1320;48.128;11.592;2023-04-06T08:25:35;9.00;;;7.63;;
2620;SDS011;1320;48.128;11.592;2023-04-06T08:28:01;7.83;;;7.03;;
2620;SDS011;1320;48.128;11.592;2023-04-06T08:30:30;9.33;;;8.40;;
2620;SDS011;1320;48.128;11.592;2023-04-06T08:32:55;7.90;;;7.10;;
2620;SDS011;1320;48.128;11.592;2023-04-06T08:35:21;10.40;;;6.90;;
2620;SDS011;1320;48.128;11.592;2023-04-06T08:37:47;8.67;;;7.03;;
2620;SDS011;1320;48.128;11.592;2023-04-06T08:40:13;9.37;;;8.40;;
2620;SDS011;1320;48.128;11.592;2023-04-06T08:42:39;13.53;;;7.80;;
2620;SDS011;1320;48.128;11.592;2023-04-06T08:45:08;9.80;;;7.93;;
2620;SDS011;1320;48.128;11.592;2023-04-06T08:47:34;9.53;;;8.23;;
2620;SDS011;1320;48.128;11.592;2023-04-06T08:50:03;8.40;;;7.60;;
2620;SDS011;1320;48.128;11.592;2023-04-06T08:52:29;9.93;;;8.00;;
2620;SDS011;1320;48.128;11.592;2023-04-06T08:54:58;7.80;;;7.00;;
2620;SDS011;1320;48.128;11.592;2023-04-06T08:57:24;8.10;;;7.30;;
2620;SDS011;1320;48.128;11.592;2023-04-06T08:59:51;8.73;;;7.87;;
2620;SDS011;1320;48.128;11.592;2023-04-06T09:02:17;10.13;;;8.13;;
2620;SDS011;1320;48.128;11.592;2023-04-06T09:04:47;8.93;;;7.47;;
2620;SDS011;1320;48.128;11.592;2023-04-06T09:07:17;9.70;;;8.57;;
2620;SDS011;1320;48.128;11.592;2023-04-06T09:09:43;10.10;;;8.20;;
2620;SDS011;1320;48.128;11.592;2023-04-06T09:12:34;10.10;;;8.57;;
2620;SDS011;1320;48.128;11.592;2023-04-06T09:14:59;11.43;;;8.20;;
2620;SDS011;1320;48.128;11.592;2023-04-06T09:17:26;8.17;;;7.23;;
2620;SDS011;1320;48.128;11.592;2023-04-06T09:19:59;8.27;;;7.10;;
2620;SDS011;1320;48.128;11.592;2023-04-06T09:22:37;9.20;;;8.30;;
2620;SDS011;1320;48.128;11.592;2023-04-06T09:25:04;8.40;;;7.60;;
2620;SDS011;1320;48.128;11.592;2023-04-06T09:27:31;9.40;;;8.40;;
2620;SDS011;1320;48.128;11.592;2023-04-06T09:30:10;10.57;;;8.13;;
2620;SDS011;1320;48.128;11.592;2023-04-06T09:32:51;9.60;;;7.80;;
2620;SDS011;1320;48.128;11.592;2023-04-06T09:35:18;11.27;;;8.90;;
2620;SDS011;1320;48.128;11.592;2023-04-06T09:37:45;8.57;;;7.70;;
2620;SDS011;1320;48.128;11.592;2023-04-06T09:40:12;12.40;;;8.90;;
2620;SDS011;1320;48.128;11.592;2023-04-06T09:42:41;10.47;;;8.73;;
2620;SDS011;1320;48.128;11.592;2023-04-06T09:45:10;8.50;;;7.70;;
2620;SDS011;1320;48.128;11.592;2023-04-06T09:47:36;13.30;;;8.90;;
2620;SDS011;1320;48.128;11.592;2023-04-06T09:50:02;8.63;;;7.73;;
2620;SDS011;1320;48.128;11.592;2023-04-06T09:52:49;9.43;;;8.50;;
2620;SDS011;1320;48.128;11.592;2023-04-06T09:55:33;10.60;;;8.23;;
2620;SDS011;1320;48.128;11.592;2023-04-06T09:58:05;12.10;;;8.70;;
2620;SDS011;1320;48.128;11.592;2023-04-06T10:00:44;10.50;;;8.50;;
2620;SDS011;1320;48.128;11.592;2023-04-06T10:06:03;9.80;;;8.30;;
2620;SDS011;1320;48.128;11.592;2023-04-06T10:08:35;13.03;;;8.00;;
2620;SDS011;1320;48.128;11.592;2023-04-06T10:11:05;12.20;;;7.27;;
2620;SDS011;1320;48.128;11.592;2023-04-06T10:13:31;10.73;;;8.80;;
2620;SDS011;1320;48.128;11.592;2023-04-06T10:15:57;12.60;;;8.87;;
2620;SDS011;1320;48.128;11.592;2023-04-06T10:18:26;9.80;;;8.07;;
2620;SDS011;1320;48.128;11.592;2023-04-06T10:21:11;10.10;;;8.60;;
2620;SDS011;1320;48.128;11.592;2023-04-06T10:23:47;10.80;;;7.17;;
2620;SDS011;1320;48.128;11.592;2023-04-06T10:26:16;11.60;;;7.10;;
2620;SDS011;1320;48.128;11.592;2023-04-06T10:28:45;7.53;;;6.83;;
2620;SDS011;1320;48.128;11.592;2023-04-06T10:31:13;9.70;;;7.90;;
2620;SDS011;1320;48.128;11.592;2023-04-06T10:33:39;8.27;;;7.40;;
2620;SDS011;1320;48.128;11.592;2023-04-06T10:36:12;10.77;;;8.57;;
2620;SDS011;1320;48.128;11.592;2023-04-06T10:38:39;9.10;;;6.93;;
2620;SDS011;1320;48.128;11.592;2023-04-06T10:41:07;8.97;;;7.60;;
2620;SDS011;1320;48.128;11.592;2023-04-06T10:43:34;8.90;;;8.00;;
2620;SDS011;1320;48.128;11.592;2023-04-06T10:46:03;10.10;;;8.23;;
2620;SDS011;1320;48.128;11.592;2023-04-06T10:51:13;10.93;;;8.40;;
2620;SDS011;1320;48.128;11.592;2023-04-06T10:53:41;9.70;;;8.70;;
2620;SDS011;1320;48.128;11.592;2023-04-06T10:56:15;9.97;;;7.73;;
2620;SDS011;1320;48.128;11.592;2023-04-06T10:58:45;9.10;;;7.93;;
2620;SDS011;1320;48.128;11.592;2023-04-06T11:01:13;10.70;;;8.47;;
2620;SDS011;1320;48.128;11.592;2023-04-06T11:03:43;11.17;;;9.63;;
2620;SDS011;1320;48.128;11.592;2023-04-06T11:08:47;9.73;;;8.43;;
2620;SDS011;1320;48.128;11.592;2023-04-06T11:11:14;8.33;;;6.80;;
2620;SDS011;1320;48.128;11.592;2023-04-06T11:16:16;12.17;;;7.70;;
2620;SDS011;1320;48.128;11.592;2023-04-06T11:18:50;9.70;;;8.63;;
2620;SDS011;1320;48.128;11.592;2023-04-06T11:21:36;12.33;;;8.17;;
2620;SDS011;1320;48.128;11.592;2023-04-06T11:27:30;9.87;;;8.43;;
2620;SDS011;1320;48.128;11.592;2023-04-06T11:29:57;8.70;;;7.80;;
2620;SDS011;1320;48.128;11.592;2023-04-06T11:32:24;9.30;;;8.40;;
2620;SDS011;1320;48.128;11.592;2023-04-06T11:34:50;10.10;;;8.70;;
2620;SDS011;1320;48.128;11.592;2023-04-06T11:37:16;8.37;;;7.50;;
2620;SDS011;1320;48.128;11.592;2023-04-06T11:39:43;10.60;;;9.00;;
2620;SDS011;1320;48.128;11.592;2023-04-06T11:42:25;10.13;;;8.20;;
2620;SDS011;1320;48.128;11.592;2023-04-06T11:45:02;11.13;;;8.80;;
2620;SDS011;1320;48.128;11.592;2023-04-06T11:47:29;9.13;;;8.23;;
2620;SDS011;1320;48.128;11.592;2023-04-06T11:50:06;9.87;;;7.33;;
2620;SDS011;1320;48.128;11.592;2023-04-06T11:52:32;10.17;;;8.10;;
2620;SDS011;1320;48.128;11.592;2023-04-06T11:54:57;9.33;;;8.20;;
2620;SDS011;1320;48.128;11.592;2023-04-06T11:57:23;9.70;;;7.43;;
2620;SDS011;1320;48.128;11.592;2023-04-06T11:59:50;11.80;;;7.27;;
2620;SDS011;1320;48.128;11.592;2023-04-06T12:02:16;8.40;;;7.60;;
2620;SDS011;1320;48.128;11.592;2023-04-06T12:04:43;7.73;;;6.80;;
2620;SDS011;1320;48.128;11.592;2023-04-06T12:07:09;11.20;;;6.97;;
2620;SDS011;1320;48.128;11.592;2023-04-06T12:09:34;8.73;;;7.27;;
2620;SDS011;1320;48.128;11.592;2023-04-06T12:12:01;9.17;;;8.07;;
2620;SDS011;1320;48.128;11.592;2023-04-06T12:14:28;8.70;;;6.97;;
2620;SDS011;1320;48.128;11.592;2023-04-06T12:16:55;8.47;;;7.53;;
2620;SDS011;1320;48.128;11.592;2023-04-06T12:19:22;12.40;;;10.83;;
2620;SDS011;1320;48.128;11.592;2023-04-06T12:21:50;9.40;;;8.03;;
2620;SDS011;1320;48.128;11.592;2023-04-06T12:24:22;9.17;;;7.77;;
2620;SDS011;1320;48.128;11.592;2023-04-06T12:26:48;11.67;;;7.40;;
2620;SDS011;1320;48.128;11.592;2023-04-06T12:29:14;11.20;;;7.87;;
2620;SDS011;1320;48.128;11.592;2023-04-06T12:31:40;7.87;;;7.07;;
2620;SDS011;1320;48.128;11.592;2023-04-06T12:34:07;7.47;;;6.43;;
2620;SDS011;1320;48.128;11.592;2023-04-06T12:36:33;9.20;;;7.53;;
2620;SDS011;1320;48.128;11.592;2023-04-06T12:38:59;7.27;;;6.57;;
2620;SDS011;1320;48.128;11.592;2023-04-06T12:41:26;7.70;;;6.30;;
2620;SDS011;1320;48.128;11.592;2023-04-06T12:43:52;7.13;;;6.17;;
2620;SDS011;1320;48.128;11.592;2023-04-06T12:46:18;8.43;;;5.70;;
2620;SDS011;1320;48.128;11.592;2023-04-06T12:48:44;7.17;;;6.50;;
2620;SDS011;1320;48.128;11.592;2023-04-06T12:51:11;9.47;;;6.17;;
2620;SDS011;1320;48.128;11.592;2023-04-06T12:53:37;8.03;;;6.37;;
2620;SDS011;1320;48.128;11.592;2023-04-06T12:56:09;7.37;;;6.37;;
2620;SDS011;1320;48.128;11.592;2023-04-06T12:58:39;7.57;;;6.77;;
2620;SDS011;1320;48.128;11.592;2023-04-06T13:01:06;7.50;;;6.73;;
2620;SDS011;1320;48.128;11.592;2023-04-06T13:06:55;7.83;;;6.80;;
2620;SDS011;1320;48.128;11.592;2023-04-06T13:09:20;9.37;;;6.60;;
2620;SDS011;1320;48.128;11.592;2023-04-06T13:11:46;7.57;;;6.80;;
2620;SDS011;1320;48.128;11.592;2023-04-06T13:14:12;8.00;;;6.77;;
2620;SDS011;1320;48.128;11.592;2023-04-06T13:16:37;9.40;;;6.53;;
2620;SDS011;1320;48.128;11.592;2023-04-06T13:19:03;8.57;;;7.67;;
2620;SDS011;1320;48.128;11.592;2023-04-06T13:21:29;9.03;;;6.77;;
2620;SDS011;1320;48.128;11.592;2023-04-06T13:27:17;8.60;;;7.13;;
2620;SDS011;1320;48.128;11.592;2023-04-06T13:33:05;8.83;;;5.80;;
2620;SDS011;1320;48.128;11.592;2023-04-06T13:35:31;6.97;;;6.27;;
2620;SDS011;1320;48.128;11.592;2023-04-06T13:37:57;11.73;;;7.20;;
2620;SDS011;1320;48.128;11.592;2023-04-06T13:40:23;9.00;;;7.90;;
2620;SDS011;1320;48.128;11.592;2023-04-06T13:42:49;7.83;;;6.60;;
2620;SDS011;1320;48.128;11.592;2023-04-06T13:45:15;8.33;;;7.00;;
2620;SDS011;1320;48.128;11.592;2023-04-06T13:47:41;6.67;;;5.80;;
2620;SDS011;1320;48.128;11.592;2023-04-06T13:50:07;9.30;;;6.60;;
2620;SDS011;1320;48.128;11.592;2023-04-06T13:52:33;8.60;;;6.47;;
2620;SDS011;1320;48.128;11.592;2023-04-06T13:55:01;8.30;;;6.60;;
2620;SDS011;1320;48.128;11.592;2023-04-06T13:57:27;6.90;;;6.03;;
2620;SDS011;1320;48.128;11.592;2023-04-06T13:59:54;8.23;;;7.03;;
2620;SDS011;1320;48.128;11.592;2023-04-06T14:02:20;7.13;;;6.37;;
2620;SDS011;1320;48.128;11.592;2023-04-06T14:04:51;8.00;;;6.50;;
2620;SDS011;1320;48.128;11.592;2023-04-06T14:07:17;7.30;;;6.60;;
2620;SDS011;1320;48.128;11.592;2023-04-06T14:09:42;7.70;;;6.67;;
2620;SDS011;1320;48.128;11.592;2023-04-06T14:12:08;6.57;;;5.73;;
2620;SDS011;1320;48.128;11.592;2023-04-06T14:14:34;10.33;;;7.27;;
2620;SDS011;1320;48.128;11.592;2023-04-06T14:16:59;7.00;;;6.30;;
2620;SDS011;1320;48.128;11.592;2023-04-06T14:19:25;7.40;;;6.60;;
2620;SDS011;1320;48.128;11.592;2023-04-06T14:21:51;7.20;;;5.80;;
2620;SDS011;1320;48.128;11.592;2023-04-06T14:24:17;9.97;;;6.60;;
2620;SDS011;1320;48.128;11.592;2023-04-06T14:26:43;7.80;;;6.20;;
2620;SDS011;1320;48.128;11.592;2023-04-06T14:29:09;10.90;;;6.83;;
2620;SDS011;1320;48.128;11.592;2023-04-06T14:31:35;8.40;;;6.60;;
2620;SDS011;1320;48.128;11.592;2023-04-06T14:34:02;9.00;;;5.97;;
2620;SDS011;1320;48.128;11.592;2023-04-06T14:36:28;7.57;;;6.10;;
2620;SDS011;1320;48.128;11.592;2023-04-06T14:39:05;11.57;;;5.23;;
2620;SDS011;1320;48.128;11.592;2023-04-06T14:41:32;6.90;;;5.60;;
2620;SDS011;1320;48.128;11.592;2023-04-06T14:43:58;6.83;;;6.13;;
2620;SDS011;1320;48.128;11.592;2023-04-06T14:46:25;7.90;;;6.17;;
2620;SDS011;1320;48.128;11.592;2023-04-06T14:48:53;8.47;;;6.13;;
2620;SDS011;1320;48.128;11.592;2023-04-06T14:51:21;10.40;;;5.53;;
2620;SDS011;1320;48.128;11.592;2023-04-06T14:53:47;6.27;;;4.77;;
2620;SDS011;1320;48.128;11.592;2023-04-06T14:56:12;6.63;;;4.73;;
2620;SDS011;1320;48.128;11.592;2023-04-06T14:58:38;7.90;;;5.57;;
2620;SDS011;1320;48.128;11.592;2023-04-06T15:01:04;7.80;;;5.00;;
2620;SDS011;1320;48.128;11.592;2023-04-06T15:03:30;5.97;;;5.10;;
2620;SDS011;1320;48.128;11.592;2023-04-06T15:05:56;7.70;;;6.90;;
2620;SDS011;1320;48.128;11.592;2023-04-06T15:08:22;6.60;;;5.27;;
2620;SDS011;1320;48.128;11.592;2023-04-06T15:10:49;6.93;;;6.23;;
2620;SDS011;1320;48.128;11.592;2023-04-06T15:13:15;7.37;;;5.40;;
2620;SDS011;1320;48.128;11.592;2023-04-06T15:15:41;7.17;;;5.50;;
2620;SDS011;1320;48.128;11.592;2023-04-06T15:18:07;5.90;;;5.30;;
2620;SDS011;1320;48.128;11.592;2023-04-06T15:20:33;5.97;;;4.90;;
2620;SDS011;1320;48.128;11.592;2023-04-06T15:23:00;7.53;;;5.20;;
2620;SDS011;1320;48.128;11.592;2023-04-06T15:25:26;7.73;;;4.93;;
2620;SDS011;1320;48.128;11.592;2023-04-06T15:27:53;6.10;;;4.90;;
2620;SDS011;1320;48.128;11.592;2023-04-06T15:30:19;5.93;;;4.93;;